Time;durP1;ratioP1;P1;durP2;ratioP2;P2;SDS_P1;SDS_P2;PMS_P1;PMS_P2;Temp;Humidity;BMP_temperature;BMP_pressure;BME280_temperature;BME280_humidity;BME280_pressure;Samples;Min_cycle;Max_cycle;Signal;HPM_P1;HPM_P2
2022/05/10 00:00:50;;;;;;;9.33;8.20;;;15.60;99.90;;;;;;5040471;28;20459;-79
2022/05/10 00:03:19;;;;;;;11.60;8.57;;;15.60;99.90;;;;;;5042277;28;20461;-78
2022/05/10 00:05:46;;;;;;;9.67;7.80;;;15.60;99.90;;;;;;5035573;28;20815;-78
2022/05/10 00:08:15;;;;;;;9.67;8.27;;;15.60;99.90;;;;;;5033131;28;20451;-77
2022/05/10 00:10:44;;;;;;;8.83;7.83;;;15.50;99.90;;;;;;5041979;28;20452;-78
2022/05/10 00:13:12;;;;;;;10.43;9.37;;;15.50;99.90;;;;;;5040636;28;20492;-78
2022/05/10 00:15:41;;;;;;;9.03;7.70;;;15.50;99.90;;;;;;5039049;28;20449;-78
2022/05/10 00:18:09;;;;;;;8.90;8.07;;;15.40;99.90;;;;;;5040433;28;20475;-78
2022/05/10 00:20:38;;;;;;;8.47;7.30;;;15.40;99.90;;;;;;5040240;28;20836;-78
2022/05/10 00:23:05;;;;;;;9.03;6.73;;;15.40;99.90;;;;;;5036359;28;20479;-78
2022/05/10 00:25:32;;;;;;;8.43;6.90;;;15.30;99.90;;;;;;5037264;28;21029;-78
2022/05/10 00:27:59;;;;;;;9.87;7.97;;;15.30;99.90;;;;;;5038162;28;20456;-78
2022/05/10 00:30:26;;;;;;;11.93;7.90;;;15.30;99.90;;;;;;5042006;28;20974;-77
2022/05/10 00:32:54;;;;;;;7.87;7.07;;;15.30;99.90;;;;;;5041111;28;20491;-77
2022/05/10 00:35:24;;;;;;;8.53;6.50;;;15.30;99.90;;;;;;5033701;28;20448;-78
2022/05/10 00:37:55;;;;;;;9.33;6.90;;;15.30;99.90;;;;;;5032712;28;20460;-78
2022/05/10 00:40:24;;;;;;;8.60;7.23;;;15.30;99.90;;;;;;5031185;28;20901;-78
2022/05/10 00:42:56;;;;;;;7.40;6.53;;;15.20;99.90;;;;;;5032672;28;20473;-78
2022/05/10 00:45:28;;;;;;;7.03;6.30;;;15.20;99.90;;;;;;5031604;28;20500;-77
2022/05/10 00:48:06;;;;;;;8.27;7.17;;;15.20;99.90;;;;;;5038988;28;20461;-79
2022/05/10 00:50:37;;;;;;;8.47;6.63;;;15.20;99.90;;;;;;5039257;28;20459;-78
2022/05/10 00:53:08;;;;;;;7.70;6.90;;;15.20;99.90;;;;;;5040457;28;20511;-78
2022/05/10 00:55:40;;;;;;;8.33;7.37;;;15.20;99.90;;;;;;5040323;28;20464;-77
2022/05/10 00:58:17;;;;;;;6.20;5.60;;;15.20;99.90;;;;;;5039756;28;20969;-77
2022/05/10 01:00:45;;;;;;;7.10;6.30;;;15.20;99.90;;;;;;5038744;28;20452;-77
2022/05/10 01:03:18;;;;;;;6.20;5.60;;;15.20;99.90;;;;;;5037870;28;20962;-78
2022/05/10 01:05:48;;;;;;;8.00;6.17;;;15.20;99.90;;;;;;5038842;28;20462;-78
2022/05/10 01:08:22;;;;;;;7.20;5.97;;;15.20;99.90;;;;;;5039716;28;20457;-78
2022/05/10 01:10:52;;;;;;;8.87;6.50;;;15.20;99.90;;;;;;5038676;28;20957;-79
2022/05/10 01:13:27;;;;;;;6.40;5.80;;;15.10;99.90;;;;;;5038026;28;20487;-79
2022/05/10 01:16:02;;;;;;;6.87;5.87;;;15.10;99.90;;;;;;5037614;28;20475;-78
2022/05/10 01:18:29;;;;;;;6.73;6.07;;;15.10;99.90;;;;;;5039029;28;20451;-77
2022/05/10 01:21:01;;;;;;;7.43;6.40;;;15.00;99.90;;;;;;5040040;28;20534;-78
2022/05/10 01:24:03;;;;;;;6.53;5.43;;;15.00;99.90;;;;;;5039295;28;20547;-79
2022/05/10 01:26:43;;;;;;;7.33;6.10;;;15.00;99.90;;;;;;5021916;28;20467;-77
2022/05/10 01:29:16;;;;;;;8.13;6.03;;;15.00;99.90;;;;;;5015486;28;20452;-77
2022/05/10 01:33:29;;;;;;;6.93;6.23;;;15.00;99.90;;;;;;5032789;28;20456;-77
2022/05/10 01:34:37;;;;;;;6.03;5.20;;;14.90;99.90;;;;;;5035613;28;20882;-77
2022/05/10 01:37:10;;;;;;;9.40;5.77;;;14.90;99.90;;;;;;5035680;28;20445;-78
2022/05/10 01:39:43;;;;;;;7.33;5.70;;;14.90;99.90;;;;;;5036111;28;20445;-77
2022/05/10 01:42:15;;;;;;;6.90;5.43;;;14.90;99.90;;;;;;5035058;28;21151;-77
2022/05/10 01:44:50;;;;;;;6.43;5.70;;;14.80;99.90;;;;;;5035721;28;20468;-77
2022/05/10 01:47:21;;;;;;;7.20;5.40;;;14.80;99.90;;;;;;5037278;28;20448;-77
2022/05/10 01:49:53;;;;;;;7.63;5.10;;;14.80;99.90;;;;;;5037837;28;20448;-77
2022/05/10 01:52:26;;;;;;;5.93;5.33;;;14.80;99.90;;;;;;5038134;28;20538;-77
2022/05/10 01:55:19;;;;;;;7.53;5.40;;;14.80;99.90;;;;;;5037931;28;20464;-77
2022/05/10 01:57:46;;;;;;;5.53;4.93;;;14.70;99.90;;;;;;5036722;28;20453;-77
2022/05/10 02:00:18;;;;;;;6.50;5.80;;;14.70;99.90;;;;;;5037102;28;20478;-77
2022/05/10 02:02:49;;;;;;;5.97;5.37;;;14.70;99.90;;;;;;5038772;28;20472;-77
2022/05/10 02:05:24;;;;;;;7.53;5.30;;;14.70;99.90;;;;;;5038739;28;20454;-77
2022/05/10 02:07:56;;;;;;;6.50;5.83;;;14.70;99.90;;;;;;5038058;28;20453;-77
2022/05/10 02:10:30;;;;;;;6.97;5.90;;;14.70;99.90;;;;;;5037405;28;20538;-77
2022/05/10 02:13:01;;;;;;;5.87;5.20;;;14.70;99.90;;;;;;5037400;28;20497;-77
2022/05/10 02:15:39;;;;;;;6.30;5.50;;;14.70;99.90;;;;;;5035650;28;20456;-78
2022/05/10 02:18:12;;;;;;;7.37;5.47;;;14.70;99.90;;;;;;5037145;28;20942;-77
2022/05/10 02:20:43;;;;;;;7.30;5.07;;;14.70;99.90;;;;;;5036753;28;20465;-77
2022/05/10 02:23:16;;;;;;;9.63;6.57;;;14.70;99.90;;;;;;5039578;28;20509;-78
2022/05/10 02:25:46;;;;;;;6.60;5.00;;;14.70;99.90;;;;;;5041118;28;20478;-77
2022/05/10 02:28:20;;;;;;;5.80;5.20;;;14.70;99.90;;;;;;5040257;28;20459;-77
2022/05/10 02:30:51;;;;;;;6.00;5.40;;;14.70;99.90;;;;;;5041072;28;20451;-77
2022/05/10 02:33:19;;;;;;;6.10;5.60;;;14.80;99.90;;;;;;5040696;28;20497;-77
2022/05/10 02:35:49;;;;;;;9.20;5.17;;;14.80;99.90;;;;;;5040913;28;20462;-76
2022/05/10 02:38:19;;;;;;;6.60;5.90;;;14.70;99.90;;;;;;5041081;28;20455;-77
2022/05/10 02:40:47;;;;;;;5.97;5.07;;;14.80;99.90;;;;;;5039300;28;20453;-78
2022/05/10 02:43:18;;;;;;;6.80;6.15;;;14.70;99.90;;;;;;5036854;28;20450;-79
2022/05/10 02:45:45;;;;;;;5.13;4.63;;;14.70;99.90;;;;;;5036673;28;20203;-79
2022/05/10 02:48:21;;;;;;;9.43;5.40;;;14.80;99.90;;;;;;5037284;28;20455;-79
2022/05/10 02:50:48;;;;;;;5.57;4.97;;;14.70;99.90;;;;;;5035364;28;20452;-80
2022/05/10 02:53:15;;;;;;;6.63;6.03;;;14.70;99.90;;;;;;5037178;28;21035;-78
2022/05/10 02:55:48;;;;;;;5.20;4.67;;;14.70;99.90;;;;;;5036305;28;20457;-80
2022/05/10 02:58:21;;;;;;;6.57;5.50;;;14.70;99.90;;;;;;5036633;28;20461;-79
2022/05/10 03:00:50;;;;;;;6.33;5.60;;;14.70;99.90;;;;;;5037074;28;20460;-78
2022/05/10 03:03:25;;;;;;;6.53;5.93;;;14.70;99.90;;;;;;5037207;28;20515;-79
2022/05/10 03:05:53;;;;;;;6.10;5.40;;;14.70;99.90;;;;;;5037064;28;20487;-78
2022/05/10 03:08:20;;;;;;;6.37;5.30;;;14.70;99.90;;;;;;5037873;28;20465;-78
2022/05/10 03:10:47;;;;;;;5.50;5.00;;;14.70;99.90;;;;;;5037224;28;20530;-78
2022/05/10 03:13:14;;;;;;;5.73;5.17;;;14.70;99.90;;;;;;5035993;28;20490;-79
2022/05/10 03:15:41;;;;;;;7.50;5.53;;;14.60;99.90;;;;;;5036236;28;20450;-79
2022/05/10 03:18:08;;;;;;;6.33;5.20;;;14.70;99.90;;;;;;5037294;28;20451;-78
2022/05/10 03:20:36;;;;;;;7.40;5.87;;;14.60;99.90;;;;;;5036956;28;20451;-78
2022/05/10 03:23:03;;;;;;;6.53;5.83;;;14.60;99.90;;;;;;5037922;28;20473;-77
2022/05/10 03:25:32;;;;;;;7.10;6.40;;;14.60;99.90;;;;;;5037697;28;20445;-77
2022/05/10 03:27:59;;;;;;;6.07;5.10;;;14.60;99.90;;;;;;5037084;28;20461;-77
2022/05/10 03:30:27;;;;;;;6.90;5.30;;;14.60;99.90;;;;;;5037249;28;20484;-77
2022/05/10 03:32:53;;;;;;;7.17;6.50;;;14.50;99.90;;;;;;5037180;28;20488;-78
2022/05/10 03:35:20;;;;;;;7.20;5.50;;;14.50;99.90;;;;;;5036572;28;20447;-79
2022/05/10 03:37:49;;;;;;;6.63;6.03;;;14.50;99.90;;;;;;5037123;28;20467;-78
2022/05/10 03:40:16;;;;;;;5.80;5.27;;;14.50;99.90;;;;;;5036884;28;20453;-78
2022/05/10 03:42:44;;;;;;;8.90;7.07;;;14.40;99.90;;;;;;5036183;28;20466;-78
2022/05/10 03:45:12;;;;;;;5.90;5.30;;;14.40;99.90;;;;;;5035292;28;20455;-78
2022/05/10 03:47:40;;;;;;;6.23;5.60;;;14.40;99.90;;;;;;5036190;28;20450;-78
2022/05/10 03:50:08;;;;;;;5.67;5.00;;;14.40;99.90;;;;;;5034927;28;20454;-78
2022/05/10 03:52:36;;;;;;;6.67;5.97;;;14.40;99.90;;;;;;5035982;28;20492;-77
2022/05/10 03:55:04;;;;;;;7.20;5.93;;;14.40;99.90;;;;;;5036099;28;20556;-77
2022/05/10 03:57:31;;;;;;;6.43;5.83;;;14.40;99.90;;;;;;5035489;28;20449;-78
2022/05/10 03:59:58;;;;;;;12.17;6.60;;;14.40;99.90;;;;;;5035681;28;20447;-77
2022/05/10 04:02:25;;;;;;;8.13;6.20;;;14.40;99.90;;;;;;5035534;28;20464;-77
2022/05/10 04:04:51;;;;;;;6.23;5.50;;;14.40;99.90;;;;;;5035739;28;20963;-78
2022/05/10 04:07:19;;;;;;;8.10;6.03;;;14.40;99.90;;;;;;5035284;28;20453;-77
2022/05/10 04:09:45;;;;;;;6.60;6.00;;;14.40;99.90;;;;;;5035529;28;20451;-77
2022/05/10 04:12:14;;;;;;;6.43;5.73;;;14.50;99.90;;;;;;5037320;28;20494;-77
2022/05/10 04:14:49;;;;;;;7.17;5.93;;;14.50;99.90;;;;;;5035690;28;20512;-78
2022/05/10 04:17:16;;;;;;;6.50;5.30;;;14.50;99.90;;;;;;5035041;28;20464;-78
2022/05/10 04:19:43;;;;;;;13.07;6.40;;;14.60;99.90;;;;;;5035518;28;20456;-77
2022/05/10 04:22:10;;;;;;;7.03;6.23;;;14.60;99.90;;;;;;5034995;28;20482;-77
2022/05/10 04:24:37;;;;;;;7.70;6.13;;;14.60;99.90;;;;;;5035652;28;20456;-78
2022/05/10 04:27:04;;;;;;;6.47;5.53;;;14.70;99.90;;;;;;5035313;28;20449;-79
2022/05/10 04:29:32;;;;;;;7.60;5.77;;;14.70;99.90;;;;;;5034451;28;20452;-78
2022/05/10 04:31:59;;;;;;;7.17;6.33;;;14.70;99.90;;;;;;5034992;28;21337;-78
2022/05/10 04:34:26;;;;;;;12.40;7.20;;;14.80;99.90;;;;;;5034791;28;20863;-77
2022/05/10 04:36:53;;;;;;;6.30;5.50;;;14.80;99.90;;;;;;5034973;28;20457;-78
2022/05/10 04:39:20;;;;;;;6.30;5.60;;;14.80;99.90;;;;;;5036356;28;20456;-78
2022/05/10 04:41:49;;;;;;;6.43;5.73;;;14.90;99.90;;;;;;5038103;28;20482;-77
2022/05/10 04:44:16;;;;;;;6.67;6.00;;;14.90;99.90;;;;;;5037583;28;20444;-77
2022/05/10 04:46:45;;;;;;;7.07;6.17;;;15.00;99.90;;;;;;5037911;28;20808;-79
2022/05/10 04:49:15;;;;;;;5.87;5.37;;;15.00;99.90;;;;;;5027579;28;20468;-79
2022/05/10 04:51:42;;;;;;;6.37;5.73;;;15.00;99.90;;;;;;5037211;28;20448;-80
2022/05/10 04:54:09;;;;;;;5.80;5.13;;;15.10;99.90;;;;;;5036781;28;20491;-79
2022/05/10 04:56:36;;;;;;;8.27;6.40;;;15.10;99.90;;;;;;5036329;28;20445;-79
2022/05/10 04:59:02;;;;;;;7.37;5.40;;;15.10;99.90;;;;;;5036499;28;20449;-80
2022/05/10 05:01:31;;;;;;;6.80;6.10;;;15.10;99.90;;;;;;5034957;28;20470;-80
2022/05/10 05:04:01;;;;;;;6.50;5.60;;;15.10;99.90;;;;;;5039630;28;20465;-79
2022/05/10 05:06:28;;;;;;;8.20;6.30;;;15.20;99.90;;;;;;5038222;28;20460;-78
2022/05/10 05:08:56;;;;;;;8.53;5.77;;;15.20;99.90;;;;;;5030985;28;20465;-80
2022/05/10 05:11:23;;;;;;;7.63;5.70;;;15.30;99.90;;;;;;5028814;28;20448;-79
2022/05/10 05:13:56;;;;;;;6.93;5.93;;;15.30;99.90;;;;;;5028717;28;20995;-79
2022/05/10 05:16:24;;;;;;;6.70;5.97;;;15.30;99.90;;;;;;5038064;28;20475;-79
2022/05/10 05:18:50;;;;;;;7.10;6.40;;;15.40;99.90;;;;;;5047109;28;20962;-80
2022/05/10 05:21:26;;;;;;;7.50;6.60;;;15.50;99.90;;;;;;5036363;28;20475;-79
2022/05/10 05:23:55;;;;;;;7.90;6.57;;;15.60;99.90;;;;;;5035338;28;20473;-80
2022/05/10 05:26:22;;;;;;;9.97;5.53;;;15.70;99.90;;;;;;5037936;28;20448;-80
2022/05/10 05:28:51;;;;;;;8.63;6.53;;;15.80;99.90;;;;;;5039593;28;20490;-78
2022/05/10 05:31:18;;;;;;;9.40;6.43;;;15.80;99.90;;;;;;5033839;28;20496;-80
2022/05/10 05:33:45;;;;;;;7.23;6.10;;;15.90;99.90;;;;;;5035899;28;20495;-79
2022/05/10 05:36:11;;;;;;;10.93;6.50;;;16.00;99.90;;;;;;5036191;28;20459;-80
2022/05/10 05:38:40;;;;;;;9.63;6.77;;;16.10;99.90;;;;;;5037134;28;20457;-80
2022/05/10 05:41:09;;;;;;;10.50;6.90;;;16.10;99.90;;;;;;5035686;28;20840;-80
2022/05/10 05:43:35;;;;;;;8.00;6.57;;;16.10;99.90;;;;;;5039017;28;20471;-81
2022/05/10 05:46:03;;;;;;;6.57;5.97;;;16.20;99.90;;;;;;5039318;28;20486;-79
2022/05/10 05:48:30;;;;;;;9.00;6.00;;;16.20;99.90;;;;;;5041093;28;20818;-81
2022/05/10 05:50:57;;;;;;;7.30;6.00;;;16.30;99.90;;;;;;5050508;28;20539;-81
2022/05/10 05:53:26;;;;;;;8.23;6.83;;;16.30;99.90;;;;;;5034422;28;20512;-81
2022/05/10 05:55:59;;;;;;;7.73;6.03;;;16.30;99.90;;;;;;5039063;28;20559;-80
2022/05/10 05:58:26;;;;;;;8.30;6.50;;;16.30;99.90;;;;;;5046574;28;20462;-80
2022/05/10 06:00:53;;;;;;;7.30;6.00;;;16.40;99.90;;;;;;5055350;28;20459;-80
2022/05/10 06:03:20;;;;;;;7.60;6.80;;;16.50;99.90;;;;;;5043196;28;20467;-79
2022/05/10 06:05:49;;;;;;;7.97;6.90;;;16.50;99.90;;;;;;5046371;28;20446;-81
2022/05/10 06:08:16;;;;;;;7.37;6.67;;;16.60;99.90;;;;;;5047230;28;20808;-80
2022/05/10 06:10:44;;;;;;;10.93;7.10;;;16.80;99.90;;;;;;5053089;28;20456;-79
2022/05/10 06:13:12;;;;;;;9.60;6.80;;;17.00;99.90;;;;;;5062790;28;20503;-80
2022/05/10 06:15:39;;;;;;;9.57;6.60;;;17.20;99.90;;;;;;5061196;28;20492;-80
2022/05/10 06:18:06;;;;;;;5.97;5.37;;;17.50;99.90;;;;;;5056264;28;20530;-81
2022/05/10 06:20:33;;;;;;;6.97;5.20;;;17.80;99.90;;;;;;5044434;28;20547;-81
2022/05/10 06:23:00;;;;;;;5.30;4.33;;;18.20;99.90;;;;;;5041000;28;20484;-79
2022/05/10 06:25:27;;;;;;;5.97;5.13;;;18.50;99.90;;;;;;5042528;28;20487;-80
2022/05/10 06:28:07;;;;;;;6.23;5.10;;;18.90;99.90;;;;;;5047043;28;20482;-79
2022/05/10 06:30:35;;;;;;;8.03;4.90;;;19.20;99.90;;;;;;5044390;28;20468;-79
2022/05/10 06:33:08;;;;;;;6.47;5.00;;;19.40;99.90;;;;;;5042382;28;21021;-79
2022/05/10 06:35:35;;;;;;;5.30;4.80;;;19.50;99.90;;;;;;5047775;28;20563;-81
2022/05/10 06:38:19;;;;;;;6.57;5.00;;;19.70;99.90;;;;;;5045538;28;20531;-78
2022/05/10 06:40:47;;;;;;;6.43;4.70;;;19.90;99.90;;;;;;5039787;28;20482;-81
2022/05/10 06:43:14;;;;;;;6.90;6.17;;;20.00;99.90;;;;;;5047833;28;20478;-81
2022/05/10 06:45:42;;;;;;;8.50;5.30;;;20.10;99.90;;;;;;5051378;28;20989;-80
2022/05/10 06:48:10;;;;;;;6.73;4.60;;;20.20;99.90;;;;;;5050805;28;20454;-79
2022/05/10 06:50:37;;;;;;;6.03;5.13;;;20.40;99.90;;;;;;5038647;28;20494;-80
2022/05/10 06:53:05;;;;;;;9.80;5.80;;;20.40;99.90;;;;;;5051555;28;20468;-80
2022/05/10 06:55:34;;;;;;;5.43;4.17;;;20.50;99.90;;;;;;5051112;28;20575;-78
2022/05/10 06:58:01;;;;;;;6.83;4.70;;;20.70;99.90;;;;;;5048558;28;20448;-77
2022/05/10 07:00:28;;;;;;;4.60;3.80;;;20.90;99.90;;;;;;5047300;28;20461;-79
2022/05/10 07:02:57;;;;;;;6.60;4.70;;;20.90;99.90;;;;;;5044753;28;20847;-79
2022/05/10 07:05:23;;;;;;;8.20;5.67;;;21.00;99.90;;;;;;5050364;28;20527;-80
2022/05/10 07:07:50;;;;;;;6.00;4.47;;;20.90;99.90;;;;;;5043178;28;20496;-82
2022/05/10 07:10:18;;;;;;;8.83;4.37;;;20.90;99.90;;;;;;5043058;28;20480;-81
2022/05/10 07:12:46;;;;;;;6.37;4.43;;;20.90;99.90;;;;;;5045851;28;20477;-81
2022/05/10 07:15:19;;;;;;;4.83;4.20;;;20.70;99.90;;;;;;5050348;28;20483;-79
2022/05/10 07:17:45;;;;;;;6.53;4.23;;;20.80;99.90;;;;;;5037171;28;20452;-80
2022/05/10 07:20:17;;;;;;;5.30;4.20;;;20.90;99.90;;;;;;5046955;28;20454;-80
2022/05/10 07:22:44;;;;;;;7.03;4.33;;;21.00;99.90;;;;;;5056077;28;20465;-80
2022/05/10 07:25:13;;;;;;;8.33;4.90;;;21.10;99.90;;;;;;5043465;28;20527;-81
2022/05/10 07:27:40;;;;;;;5.43;4.17;;;21.20;99.90;;;;;;5045959;28;20560;-80
2022/05/10 07:30:08;;;;;;;4.90;4.30;;;21.20;99.90;;;;;;5038630;28;20479;-79
2022/05/10 07:32:35;;;;;;;5.33;4.47;;;21.20;99.90;;;;;;5031864;28;20471;-80
2022/05/10 07:35:03;;;;;;;5.57;4.10;;;21.40;99.90;;;;;;5039195;28;20494;-80
2022/05/10 07:37:33;;;;;;;12.83;4.60;;;21.40;99.90;;;;;;5039771;28;20455;-82
2022/05/10 07:40:00;;;;;;;7.23;4.17;;;21.40;99.90;;;;;;5050670;28;20539;-82
2022/05/10 07:42:27;;;;;;;5.43;3.97;;;21.60;99.90;;;;;;5048568;28;20480;-80
2022/05/10 07:44:54;;;;;;;6.57;4.43;;;21.70;99.90;;;;;;5039441;28;20870;-81
2022/05/10 07:47:21;;;;;;;5.13;4.07;;;21.90;99.90;;;;;;5047544;28;20828;-81
2022/05/10 07:49:50;;;;;;;6.33;5.10;;;22.10;99.90;;;;;;5042875;28;20475;-80
2022/05/10 07:52:17;;;;;;;7.03;3.70;;;22.30;99.90;;;;;;5039797;28;20511;-83
2022/05/10 07:54:45;;;;;;;7.73;3.90;;;22.40;99.90;;;;;;5040102;28;20481;-81
2022/05/10 07:57:11;;;;;;;5.83;4.13;;;22.60;99.90;;;;;;5040343;28;20452;-83
2022/05/10 07:59:38;;;;;;;6.00;3.93;;;22.70;99.90;;;;;;5045531;28;20448;-80
2022/05/10 08:02:06;;;;;;;5.33;3.60;;;22.80;99.90;;;;;;5040812;28;20479;-80
2022/05/10 08:04:33;;;;;;;5.00;4.07;;;23.20;99.90;;;;;;5039288;28;20480;-80
2022/05/10 08:07:01;;;;;;;5.67;3.60;;;23.50;99.90;;;;;;5039381;28;20452;-78
2022/05/10 08:09:28;;;;;;;6.60;4.00;;;23.90;99.90;;;;;;5046967;28;21031;-78
2022/05/10 08:11:56;;;;;;;8.03;4.03;;;24.30;99.90;;;;;;5046411;28;20453;-82
2022/05/10 08:14:23;;;;;;;4.77;3.67;;;24.50;99.90;;;;;;5046228;28;20560;-82
2022/05/10 08:16:50;;;;;;;4.43;3.60;;;24.90;99.90;;;;;;5055410;28;20472;-82
2022/05/10 08:19:17;;;;;;;8.20;4.03;;;25.70;99.90;;;;;;5031999;28;20492;-81
2022/05/10 08:21:43;;;;;;;4.83;3.40;;;26.20;99.90;;;;;;5047302;28;20545;-83
2022/05/10 08:24:10;;;;;;;4.50;3.40;;;26.90;99.90;;;;;;5043472;28;20457;-82
2022/05/10 08:26:37;;;;;;;4.40;3.23;;;27.60;99.90;;;;;;5042453;28;20452;-83
2022/05/10 08:29:05;;;;;;;4.40;3.37;;;28.50;99.90;;;;;;5044295;28;20847;-80
2022/05/10 08:31:32;;;;;;;4.30;3.10;;;28.90;99.90;;;;;;5044032;28;20453;-82
2022/05/10 08:34:00;;;;;;;5.87;2.70;;;29.40;99.90;;;;;;5042370;28;20472;-82
2022/05/10 08:36:26;;;;;;;4.50;2.93;;;30.30;99.90;;;;;;5041153;28;20539;-80
2022/05/10 08:38:54;;;;;;;4.13;2.70;;;31.20;99.90;;;;;;5038364;28;20495;-79
2022/05/10 08:41:25;;;;;;;5.13;3.33;;;31.50;99.90;;;;;;5035559;28;20457;-79
2022/05/10 08:43:57;;;;;;;3.65;3.10;;;31.30;99.90;;;;;;5066241;22;20862;-80
2022/05/10 08:46:31;;;;;;;3.90;3.00;;;32.10;99.60;;;;;;5034314;28;20488;-80
2022/05/10 08:49:01;;;;;;;7.83;3.40;;;32.20;94.90;;;;;;5044665;28;20964;-81
2022/05/10 08:51:29;;;;;;;4.67;2.67;;;32.70;92.80;;;;;;5032091;28;20536;-80
2022/05/10 08:53:56;;;;;;;5.00;3.00;;;33.00;92.50;;;;;;5035578;28;20495;-80
2022/05/10 08:56:26;;;;;;;5.20;2.60;;;32.30;90.50;;;;;;5034584;28;20477;-78
2022/05/10 08:59:10;;;;;;;7.80;3.17;;;33.20;94.60;;;;;;5032329;28;20440;-78
2022/05/10 09:01:47;;;;;;;7.30;2.60;;;34.70;90.30;;;;;;5036538;28;20444;-79
2022/05/10 09:04:24;;;;;;;5.33;2.67;;;35.00;82.80;;;;;;5034443;28;20475;-79
2022/05/10 09:06:58;;;;;;;4.20;3.10;;;35.40;79.40;;;;;;5018680;28;20456;-79
2022/05/10 09:09:28;;;;;;;3.47;2.53;;;34.20;73.80;;;;;;5033950;28;20484;-78
2022/05/10 09:12:09;;;;;;;4.17;2.87;;;33.20;72.70;;;;;;5034068;28;20456;-80
2022/05/10 09:14:42;;;;;;;7.03;2.80;;;33.60;75.90;;;;;;5032510;28;20487;-81
2022/05/10 09:17:11;;;;;;;5.23;2.90;;;34.00;74.50;;;;;;5034704;28;20995;-79
2022/05/10 09:19:41;;;;;;;3.63;2.90;;;33.90;71.00;;;;;;5034296;28;20976;-81
2022/05/10 09:22:17;;;;;;;3.90;2.60;;;33.90;71.50;;;;;;5034743;28;20921;-79
2022/05/10 09:24:49;;;;;;;5.50;3.00;;;33.60;70.10;;;;;;5034811;28;20464;-81
2022/05/10 09:27:17;;;;;;;4.60;2.50;;;33.90;76.50;;;;;;5034417;28;20471;-80
2022/05/10 09:29:46;;;;;;;6.27;2.90;;;34.50;75.00;;;;;;5034088;28;20456;-79
2022/05/10 09:35:14;;;;;;;4.93;2.80;;;35.00;70.30;;;;;;5022004;28;20977;-77
2022/05/10 09:37:45;;;;;;;4.60;2.47;;;36.60;76.20;;;;;;5033202;28;20853;-79
2022/05/10 09:40:32;;;;;;;4.80;2.80;;;37.50;68.20;;;;;;5034285;28;20453;-78
2022/05/10 09:43:18;;;;;;;5.40;3.20;;;38.50;61.80;;;;;;5032614;28;20468;-76
2022/05/10 09:45:45;;;;;;;4.20;3.17;;;38.90;61.60;;;;;;5031420;28;20487;-77
2022/05/10 09:48:17;;;;;;;4.10;2.50;;;38.70;59.20;;;;;;5031421;28;20467;-77
2022/05/10 09:50:46;;;;;;;4.73;2.83;;;37.60;56.20;;;;;;5025732;28;20964;-77
2022/05/10 09:53:20;;;;;;;5.03;3.03;;;36.30;56.80;;;;;;5028963;28;21230;-78
2022/05/10 09:55:58;;;;;;;6.63;2.87;;;36.40;59.00;;;;;;5033765;28;20570;-78
2022/05/10 09:58:29;;;;;;;5.97;2.80;;;36.20;58.60;;;;;;5025199;28;20485;-80
2022/05/10 10:00:57;;;;;;;4.70;3.20;;;37.30;56.50;;;;;;5024819;28;20459;-80
2022/05/10 10:03:27;;;;;;;4.70;2.80;;;39.10;59.10;;;;;;5034141;28;20539;-79
2022/05/10 10:05:56;;;;;;;5.97;2.70;;;39.90;54.10;;;;;;5034087;28;20559;-80
2022/05/10 10:08:39;;;;;;;4.10;2.80;;;38.80;52.50;;;;;;5034218;28;20506;-79
2022/05/10 10:11:13;;;;;;;3.30;2.87;;;37.10;53.70;;;;;;5031131;28;20519;-80
2022/05/10 10:13:43;;;;;;;4.70;2.80;;;36.90;55.30;;;;;;5033126;28;20465;-79
2022/05/10 10:16:17;;;;;;;8.50;4.20;;;36.90;55.50;;;;;;5033534;28;20507;-78
2022/05/10 10:18:48;;;;;;;4.10;3.03;;;36.10;54.10;;;;;;5032720;28;20484;-79
2022/05/10 10:21:21;;;;;;;5.23;3.07;;;36.10;54.80;;;;;;5034590;28;20861;-79
2022/05/10 10:23:54;;;;;;;7.73;3.20;;;36.50;53.50;;;;;;5033027;28;20455;-78
2022/05/10 10:26:31;;;;;;;7.00;3.10;;;35.70;53.70;;;;;;5034118;28;20441;-77
2022/05/10 10:29:05;;;;;;;4.40;2.77;;;34.60;56.80;;;;;;5033281;28;20457;-80
2022/05/10 10:31:37;;;;;;;6.33;2.73;;;34.60;55.50;;;;;;5034239;28;20544;-77
2022/05/10 10:34:11;;;;;;;5.47;2.80;;;33.50;56.90;;;;;;5028760;28;20461;-78
2022/05/10 10:36:42;;;;;;;6.00;3.57;;;34.30;60.30;;;;;;5037432;28;20522;-78
2022/05/10 10:39:18;;;;;;;4.00;3.23;;;34.70;58.30;;;;;;5033243;28;20449;-79
2022/05/10 10:41:50;;;;;;;4.33;2.73;;;34.90;57.20;;;;;;5033844;28;20448;-78
2022/05/10 10:44:21;;;;;;;7.50;3.53;;;36.30;58.30;;;;;;5035678;28;20527;-82
2022/05/10 10:46:57;;;;;;;4.03;2.87;;;35.00;55.70;;;;;;5036523;28;20453;-77
2022/05/10 10:49:31;;;;;;;5.47;3.47;;;34.10;57.40;;;;;;5035913;28;20457;-79
2022/05/10 10:51:59;;;;;;;3.93;3.53;;;35.50;57.80;;;;;;5036671;28;20535;-79
2022/05/10 10:54:29;;;;;;;5.40;3.53;;;36.40;54.40;;;;;;5036710;28;20468;-78
2022/05/10 10:57:31;;;;;;;5.53;3.67;;;35.50;55.40;;;;;;5038316;28;20488;-81
2022/05/10 11:00:11;;;;;;;5.60;4.77;;;34.20;56.10;;;;;;5039866;28;20456;-80
2022/05/10 11:03:08;;;;;;;6.27;4.93;;;32.90;57.90;;;;;;5042156;28;20450;-80
2022/05/10 11:06:04;;;;;;;8.00;4.87;;;32.20;58.50;;;;;;5040928;28;20527;-80
2022/05/10 11:08:45;;;;;;;6.23;4.23;;;31.00;59.90;;;;;;5031335;28;20453;-81
2022/05/10 11:11:19;;;;;;;4.10;3.33;;;30.50;60.90;;;;;;5039803;28;20528;-81
2022/05/10 11:13:56;;;;;;;5.93;3.63;;;30.60;61.30;;;;;;5039460;28;20488;-79
2022/05/10 11:16:36;;;;;;;4.43;3.33;;;30.30;60.20;;;;;;5036204;28;20480;-79
2022/05/10 11:19:25;;;;;;;5.13;2.90;;;29.80;61.20;;;;;;5036820;28;20456;-80
2022/05/10 11:22:03;;;;;;;5.27;3.60;;;29.40;63.90;;;;;;5037369;28;20681;-79
2022/05/10 11:24:40;;;;;;;5.97;3.03;;;28.70;62.40;;;;;;5038098;28;20448;-79
2022/05/10 11:27:17;;;;;;;3.60;2.47;;;28.40;62.70;;;;;;5036519;28;20447;-79
2022/05/10 11:29:57;;;;;;;7.63;3.60;;;28.50;63.50;;;;;;5035791;28;20460;-79
2022/05/10 11:32:38;;;;;;;8.00;2.80;;;28.50;63.50;;;;;;5036281;28;20535;-80
2022/05/10 11:35:23;;;;;;;9.00;3.20;;;28.40;62.80;;;;;;5035680;28;20468;-79
2022/05/10 11:37:59;;;;;;;5.70;2.80;;;28.10;61.60;;;;;;5039617;28;20459;-80
2022/05/10 11:40:48;;;;;;;3.63;2.63;;;28.70;64.40;;;;;;5038944;28;20827;-81
2022/05/10 11:43:48;;;;;;;3.03;2.33;;;29.80;63.10;;;;;;5039614;28;20463;-81
2022/05/10 11:46:42;;;;;;;6.03;2.40;;;32.80;67.90;;;;;;5023413;28;20456;-80
2022/05/10 11:49:38;;;;;;;5.10;2.80;;;35.70;58.50;;;;;;5037296;28;20453;-80
2022/05/10 11:52:32;;;;;;;4.00;2.83;;;37.60;57.20;;;;;;5005844;28;20464;-78
2022/05/10 11:55:16;;;;;;;9.40;2.60;;;39.40;52.80;;;;;;5024915;28;20980;-78
2022/05/10 11:57:43;;;;;;;8.50;2.80;;;39.20;51.10;;;;;;5030965;28;20457;-77
2022/05/10 12:00:43;;;;;;;7.10;3.23;;;38.20;50.10;;;;;;5036001;28;20474;-77
2022/05/10 12:03:13;;;;;;;6.53;3.50;;;37.60;50.60;;;;;;5041071;28;20476;-78
2022/05/10 12:05:41;;;;;;;6.73;3.03;;;37.10;52.90;;;;;;5033372;28;20457;-76
2022/05/10 12:08:35;;;;;;;6.27;3.37;;;36.90;51.90;;;;;;5040793;28;20546;-76
2022/05/10 12:11:38;;;;;;;4.10;2.70;;;37.40;51.70;;;;;;5033863;28;20828;-76
2022/05/10 12:22:57;;;;;;;4.00;2.70;;;40.70;45.10;;;;;;5033293;28;20487;-78
2022/05/10 12:25:59;;;;;;;3.30;2.20;;;40.30;99.90;;;;;;5033026;28;20573;-77
2022/05/10 12:28:45;;;;;;;6.30;3.00;;;39.40;99.90;;;;;;4971679;28;20459;-77
2022/05/10 12:31:26;;;;;;;5.07;2.93;;;38.60;99.90;;;;;;5028891;28;20496;-77
2022/05/10 12:34:01;;;;;;;5.67;3.00;;;38.20;99.90;;;;;;5032876;28;20456;-77
2022/05/10 12:36:31;;;;;;;4.10;3.13;;;38.00;99.90;;;;;;5045670;28;20483;-77
2022/05/10 12:39:16;;;;;;;3.77;2.60;;;37.80;99.90;;;;;;5035984;28;20457;-78
2022/05/10 12:41:52;;;;;;;5.83;2.70;;;38.10;99.90;;;;;;5033417;28;20455;-76
2022/05/10 12:44:56;;;;;;;4.93;3.30;;;37.60;99.90;;;;;;5038649;28;20498;-78
2022/05/10 12:47:45;;;;;;;5.10;2.93;;;37.60;99.90;;;;;;5038269;28;20457;-76
2022/05/10 12:50:37;;;;;;;5.87;2.70;;;36.50;99.90;;;;;;5027711;28;20535;-77
2022/05/10 12:53:17;;;;;;;7.77;4.27;;;37.20;99.90;;;;;;5020540;28;20443;-77
2022/05/10 12:55:45;;;;;;;4.87;3.27;;;38.40;99.90;;;;;;5035328;28;20496;-79
2022/05/10 12:58:19;;;;;;;5.50;3.43;;;38.10;99.90;;;;;;5036749;28;20948;-80
2022/05/10 13:00:49;;;;;;;4.87;3.47;;;37.40;99.90;;;;;;5035213;28;20605;-79
2022/05/10 13:03:22;;;;;;;9.57;6.77;;;37.30;99.90;;;;;;5036550;28;20467;-78
2022/05/10 13:06:07;;;;;;;5.70;3.77;;;36.60;99.90;;;;;;5034040;28;20562;-79
2022/05/10 13:08:55;;;;;;;5.40;3.10;;;35.10;99.90;;;;;;5030036;28;20457;-79
2022/05/10 13:11:24;;;;;;;4.70;3.27;;;34.00;99.90;;;;;;5026556;28;20464;-79
2022/05/10 13:13:53;;;;;;;4.83;3.70;;;33.30;99.90;;;;;;5037678;28;20540;-78
2022/05/10 13:16:21;;;;;;;5.83;4.00;;;32.70;99.90;;;;;;5037372;28;20480;-79
2022/05/10 13:18:53;;;;;;;7.90;3.80;;;31.80;99.90;;;;;;5036484;28;20456;-79
2022/05/10 13:21:25;;;;;;;3.93;2.80;;;31.10;99.90;;;;;;5038156;28;20456;-79